Time;durP1;ratioP1;P1;durP2;ratioP2;P2;SDS_P1;SDS_P2;PMS_P1;PMS_P2;Temp;Humidity;BMP_temperature;BMP_pressure;BME280_temperature;BME280_humidity;BME280_pressure;Samples;Min_cycle;Max_cycle;Signal;HPM_P1;HPM_P2
2023/05/09 00:00:22;;;;;;;4.30;3.53;;;;;;;23.69;46.48;101371.25;143718;578;46008;-75
2023/05/09 00:02:50;;;;;;;5.82;4.30;;;;;;;23.69;47.24;101364.97;143722;595;47006;-75
2023/05/09 00:05:16;;;;;;;4.32;2.95;;;;;;;23.68;47.27;101369.63;143721;625;47012;-74
2023/05/09 00:07:42;;;;;;;6.22;4.28;;;;;;;23.69;46.83;101370.44;143722;733;47006;-74
2023/05/09 00:10:09;;;;;;;3.97;3.20;;;;;;;23.69;46.60;101357.56;143723;749;47002;-74
2023/05/09 00:12:36;;;;;;;4.93;3.53;;;;;;;23.69;46.89;101359.47;143722;583;47005;-74
2023/05/09 00:15:03;;;;;;;5.68;3.40;;;;;;;23.69;48.41;101356.75;143721;651;47923;-74
2023/05/09 00:17:30;;;;;;;5.90;4.18;;;;;;;23.67;49.84;101356.19;143721;567;47004;-75
2023/05/09 00:19:56;;;;;;;5.05;4.10;;;;;;;23.65;50.90;101359.19;143723;581;46009;-74
2023/05/09 00:22:22;;;;;;;7.03;4.37;;;;;;;23.61;51.19;101356.16;143725;599;46008;-74
2023/05/09 00:24:49;;;;;;;4.30;3.90;;;;;;;23.58;51.61;101353.97;143716;589;47012;-75
2023/05/09 00:27:16;;;;;;;7.65;3.92;;;;;;;23.56;51.61;101355.34;143722;596;47004;-74
2023/05/09 00:29:43;;;;;;;6.03;4.20;;;;;;;23.52;52.03;101359.72;143722;597;47002;-73
2023/05/09 00:32:09;;;;;;;7.37;3.60;;;;;;;23.47;53.23;101369.56;143722;738;47006;-73
2023/05/09 00:34:36;;;;;;;10.88;3.75;;;;;;;23.42;52.77;101372.31;143721;568;47012;-74
2023/05/09 00:37:02;;;;;;;5.43;3.30;;;;;;;23.39;51.96;101375.59;143723;601;47006;-74
2023/05/09 00:39:28;;;;;;;4.53;3.30;;;;;;;23.37;53.01;101371.47;143723;586;46008;-74
2023/05/09 00:41:57;;;;;;;3.95;3.20;;;;;;;23.35;52.42;101370.91;143724;719;46008;-74
2023/05/09 00:44:24;;;;;;;3.22;2.80;;;;;;;23.30;52.42;101355.25;143723;604;46012;-74
2023/05/09 00:46:50;;;;;;;3.83;2.97;;;;;;;23.26;52.51;101356.91;143722;625;47006;-74
2023/05/09 00:49:17;;;;;;;3.33;3.03;;;;;;;23.22;51.77;101362.09;143718;636;46019;-75
2023/05/09 00:51:43;;;;;;;5.22;3.00;;;;;;;23.20;52.45;101363.41;143722;644;47004;-74
2023/05/09 00:54:10;;;;;;;5.22;2.53;;;;;;;23.16;53.13;101366.69;143722;704;47012;-74
2023/05/09 00:56:37;;;;;;;4.93;3.65;;;;;;;23.13;52.66;101359.00;143722;587;47006;-74
2023/05/09 00:59:04;;;;;;;7.40;4.43;;;;;;;23.12;53.86;101357.34;143721;661;46008;-74
2023/05/09 01:01:31;;;;;;;7.35;4.28;;;;;;;23.12;53.60;101364.75;143723;574;47006;-75
2023/05/09 01:03:58;;;;;;;6.93;4.78;;;;;;;23.12;54.22;101370.25;143722;573;47010;-74
2023/05/09 01:06:44;;;;;;;6.68;3.95;;;;;;;23.10;53.81;101365.03;143725;592;46011;-74
2023/05/09 01:10:10;;;;;;;6.35;4.50;;;;;;;23.11;54.71;101360.38;143723;707;46024;-75
2023/05/09 01:13:13;;;;;;;8.90;3.62;;;;;;;23.12;53.92;101365.56;143723;578;47004;-73
2023/05/09 01:15:52;;;;;;;4.70;3.20;;;;;;;23.09;52.33;101365.28;143716;720;47006;-74
2023/05/09 01:18:37;;;;;;;4.70;3.65;;;;;;;23.09;53.84;101357.06;143721;596;47006;-74
2023/05/09 01:21:10;;;;;;;4.50;3.08;;;;;;;23.10;53.57;101364.22;143721;579;46008;-74
2023/05/09 01:24:25;;;;;;;5.60;3.40;;;;;;;23.08;52.97;101361.75;143721;704;47002;-70
2023/05/09 01:27:25;;;;;;;4.18;3.12;;;;;;;23.10;53.27;101359.56;143729;580;47009;-71
2023/05/09 01:29:57;;;;;;;3.85;3.05;;;;;;;23.11;53.13;101354.91;143726;616;47006;-74
2023/05/09 01:32:27;;;;;;;4.37;3.50;;;;;;;23.12;54.25;101356.53;143722;643;46008;-73
2023/05/09 01:34:56;;;;;;;4.50;3.30;;;;;;;23.11;53.69;101363.13;143723;619;47006;-73
2023/05/09 01:37:32;;;;;;;3.97;3.35;;;;;;;23.09;54.09;101357.06;143721;585;47012;-73
2023/05/09 01:40:05;;;;;;;4.80;3.78;;;;;;;23.09;54.42;101370.78;143724;634;46010;-73
2023/05/09 01:42:50;;;;;;;4.95;4.10;;;;;;;23.07;55.23;101365.56;143712;587;51002;-74
2023/05/09 01:45:18;;;;;;;3.80;3.40;;;;;;;23.05;54.79;101355.94;143722;668;47006;-74
2023/05/09 01:47:48;;;;;;;6.55;3.87;;;;;;;23.01;55.10;101348.28;143723;587;46030;-73
2023/05/09 01:50:17;;;;;;;5.57;4.05;;;;;;;23.02;55.15;101349.09;143722;645;47007;-72
2023/05/09 01:52:47;;;;;;;5.90;3.65;;;;;;;23.00;54.66;101348.53;143722;588;46008;-72
2023/05/09 01:55:15;;;;;;;4.87;4.03;;;;;;;22.98;55.37;101351.56;143723;676;47004;-72
2023/05/09 01:57:44;;;;;;;5.97;4.30;;;;;;;22.97;55.34;101360.88;143722;573;46924;-72
2023/05/09 02:00:13;;;;;;;4.30;3.90;;;;;;;22.95;55.83;101357.56;143721;596;47006;-72
2023/05/09 02:02:40;;;;;;;6.97;4.25;;;;;;;22.93;56.06;101347.97;143723;568;46008;-72
2023/05/09 02:05:10;;;;;;;8.05;4.35;;;;;;;22.92;55.93;101362.75;143724;583;47004;-71
2023/05/09 02:07:37;;;;;;;6.35;4.07;;;;;;;22.89;55.55;101364.09;143716;589;47010;-73
2023/05/09 02:10:06;;;;;;;7.40;3.80;;;;;;;22.88;55.12;101362.44;143721;606;47006;-72
2023/05/09 02:12:33;;;;;;;5.80;3.78;;;;;;;22.86;55.44;101365.47;143720;572;47008;-73
2023/05/09 02:15:01;;;;;;;8.15;4.22;;;;;;;22.87;55.70;101363.53;143722;662;46008;-73
2023/05/09 02:17:29;;;;;;;5.03;3.97;;;;;;;22.86;55.28;101365.47;143721;574;47012;-74
2023/05/09 02:19:56;;;;;;;4.62;3.62;;;;;;;22.86;55.08;101365.47;143722;577;47007;-73
2023/05/09 02:22:22;;;;;;;4.57;4.00;;;;;;;22.84;55.24;101366.84;143719;585;46008;-74
2023/05/09 02:24:49;;;;;;;5.53;3.90;;;;;;;22.83;55.46;101366.00;143724;581;47006;-73
2023/05/09 02:27:16;;;;;;;5.70;3.95;;;;;;;22.83;54.91;101373.41;143723;646;46011;-72
2023/05/09 02:29:48;;;;;;;4.70;4.30;;;;;;;22.82;54.17;101364.34;143722;594;47006;-74
2023/05/09 02:32:23;;;;;;;5.78;3.87;;;;;;;22.82;54.16;101371.75;143718;591;46921;-72
2023/05/09 02:34:53;;;;;;;5.55;4.35;;;;;;;22.80;54.30;101374.75;143722;621;47004;-73
2023/05/09 02:37:20;;;;;;;4.40;3.50;;;;;;;22.80;54.92;101382.16;143724;618;46030;-72
2023/05/09 02:39:47;;;;;;;5.93;3.92;;;;;;;22.82;55.36;101388.19;143723;631;47006;-72
2023/05/09 02:42:16;;;;;;;5.85;4.70;;;;;;;22.81;55.26;101384.59;143726;592;46008;-72
2023/05/09 02:44:42;;;;;;;5.65;4.40;;;;;;;22.82;55.94;101396.41;143722;646;47004;-74
2023/05/09 02:47:09;;;;;;;5.62;3.87;;;;;;;22.79;56.22;101397.72;143722;611;47012;-74
2023/05/09 02:49:35;;;;;;;7.35;4.30;;;;;;;22.79;56.66;101400.47;143724;599;47007;-74
2023/05/09 02:52:01;;;;;;;4.97;4.20;;;;;;;22.79;57.25;101405.12;143723;592;46008;-74
2023/05/09 02:54:29;;;;;;;4.43;3.97;;;;;;;22.78;57.24;101406.22;143723;670;47006;-74
2023/05/09 02:56:55;;;;;;;5.93;4.18;;;;;;;22.77;57.23;101413.59;143717;586;47012;-74
2023/05/09 02:59:22;;;;;;;6.32;4.10;;;;;;;22.77;57.00;101412.78;143721;600;47006;-74
2023/05/09 03:01:48;;;;;;;8.40;4.20;;;;;;;22.76;58.13;101413.88;143722;590;46008;-74
2023/05/09 03:04:15;;;;;;;7.35;4.25;;;;;;;22.75;57.65;101420.44;143725;611;47002;-75
2023/05/09 03:06:41;;;;;;;7.47;4.50;;;;;;;22.75;57.81;101421.28;143720;628;47012;-75
2023/05/09 03:09:08;;;;;;;4.90;4.12;;;;;;;22.74;57.99;101430.59;143722;597;47006;-75
2023/05/09 03:11:35;;;;;;;5.47;4.80;;;;;;;22.74;58.71;101433.31;143722;568;46009;-74
2023/05/09 03:14:02;;;;;;;6.60;5.05;;;;;;;22.72;58.52;101430.03;143724;631;47006;-74
2023/05/09 03:16:30;;;;;;;7.15;4.47;;;;;;;22.73;58.37;101437.16;143720;735;47010;-75
2023/05/09 03:18:56;;;;;;;6.65;4.97;;;;;;;22.73;59.15;101430.81;143719;596;48010;-75
2023/05/09 03:21:22;;;;;;;5.50;5.00;;;;;;;22.71;58.75;101437.41;143718;575;46008;-75
2023/05/09 03:23:49;;;;;;;5.45;4.32;;;;;;;22.71;58.84;101444.81;143724;590;47006;-76
2023/05/09 03:26:15;;;;;;;6.65;3.85;;;;;;;22.69;58.16;101450.53;143723;578;46012;-75
2023/05/09 03:28:42;;;;;;;4.82;3.70;;;;;;;22.67;57.87;101452.72;143723;596;46010;-74
2023/05/09 03:31:08;;;;;;;5.80;4.47;;;;;;;22.67;58.19;101443.66;143724;566;46008;-75
2023/05/09 03:33:35;;;;;;;4.72;4.20;;;;;;;22.66;58.42;101447.50;143724;606;47006;-74
2023/05/09 03:36:01;;;;;;;5.65;4.50;;;;;;;22.65;57.96;101451.31;143723;685;47013;-75
2023/05/09 03:38:27;;;;;;;5.30;4.07;;;;;;;22.63;58.44;101457.06;143722;589;47006;-75
2023/05/09 03:40:54;;;;;;;7.87;4.12;;;;;;;22.62;58.21;101452.69;143722;607;46009;-75
2023/05/09 03:43:20;;;;;;;8.07;4.62;;;;;;;22.61;58.82;101455.66;143724;582;47006;-75
2023/05/09 03:45:46;;;;;;;6.65;4.12;;;;;;;22.58;58.17;101454.28;143714;584;47008;-75
2023/05/09 03:48:13;;;;;;;4.80;4.20;;;;;;;22.56;58.08;101461.94;143724;567;47007;-75
2023/05/09 03:50:39;;;;;;;4.87;4.03;;;;;;;22.55;58.25;101466.59;143723;604;46008;-74
2023/05/09 03:53:06;;;;;;;6.87;4.18;;;;;;;22.55;58.60;101471.22;143724;655;47002;-75
2023/05/09 03:55:32;;;;;;;8.88;4.22;;;;;;;22.52;58.32;101475.31;143722;595;46010;-75
2023/05/09 03:57:59;;;;;;;14.82;8.38;;;;;;;22.50;58.71;101474.75;143723;578;47004;-74
2023/05/09 04:00:25;;;;;;;44.13;39.22;;;;;;;22.50;58.69;101482.16;143724;566;46006;-75
2023/05/09 04:02:52;;;;;;;20.92;17.90;;;;;;;22.49;58.29;101475.03;143724;579;47002;-75
2023/05/09 04:05:19;;;;;;;8.30;6.68;;;;;;;22.48;58.62;101476.09;143724;590;46924;-75
2023/05/09 04:07:45;;;;;;;7.70;5.32;;;;;;;22.49;59.43;101483.22;143722;589;47004;-74
2023/05/09 04:10:12;;;;;;;7.82;5.20;;;;;;;22.48;58.96;101487.87;143721;575;46002;-75
2023/05/09 04:12:38;;;;;;;5.40;4.32;;;;;;;22.47;59.00;101479.94;143724;592;47002;-73
2023/05/09 04:15:06;;;;;;;6.65;4.60;;;;;;;22.47;59.05;101485.41;143725;577;46022;-73
2023/05/09 04:17:32;;;;;;;4.82;4.43;;;;;;;22.47;58.91;101482.66;143723;603;47004;-74
2023/05/09 04:19:59;;;;;;;6.90;4.70;;;;;;;22.48;59.28;101489.78;143724;751;46007;-75
2023/05/09 04:22:25;;;;;;;10.95;4.82;;;;;;;22.48;60.15;101487.87;143718;599;47002;-74
2023/05/09 04:24:52;;;;;;;5.97;4.50;;;;;;;22.48;60.21;101496.06;143722;601;47008;-75
2023/05/09 04:27:18;;;;;;;7.70;4.80;;;;;;;22.49;60.16;101491.44;143724;578;47004;-76
2023/05/09 04:29:44;;;;;;;9.45;4.90;;;;;;;22.50;60.03;101490.38;143725;567;46006;-75
2023/05/09 04:32:11;;;;;;;7.25;5.18;;;;;;;22.48;60.33;101498.00;143725;647;47004;-76
2023/05/09 04:34:37;;;;;;;6.87;4.93;;;;;;;22.49;59.58;101502.41;143719;600;46011;-75
2023/05/09 04:37:04;;;;;;;5.75;5.15;;;;;;;22.49;59.50;101496.91;143721;577;47004;-76
2023/05/09 04:39:30;;;;;;;6.55;4.55;;;;;;;22.49;58.95;101507.87;143724;583;47006;-75
2023/05/09 04:41:57;;;;;;;7.20;4.53;;;;;;;22.50;58.69;101507.59;143726;569;47002;-74
2023/05/09 04:44:23;;;;;;;6.68;4.78;;;;;;;22.51;59.14;101512.00;143723;589;47008;-75
2023/05/09 04:46:50;;;;;;;6.72;4.15;;;;;;;22.52;59.36;101512.81;143725;614;47004;-74
2023/05/09 04:49:16;;;;;;;6.25;4.53;;;;;;;22.52;58.83;101512.81;143725;567;46922;-75
2023/05/09 04:51:43;;;;;;;7.00;4.65;;;;;;;22.52;59.05;101518.28;143729;569;47002;-74
2023/05/09 04:54:09;;;;;;;7.10;4.65;;;;;;;22.53;58.42;101519.94;143724;687;47008;-75
2023/05/09 04:56:36;;;;;;;8.48;4.47;;;;;;;22.54;56.55;101522.44;143722;673;47004;-75
2023/05/09 04:59:02;;;;;;;6.12;4.60;;;;;;;22.56;57.16;101523.00;143719;666;46006;-73
2023/05/09 05:01:29;;;;;;;5.97;5.35;;;;;;;22.55;58.10;101529.56;143724;583;47002;-73
2023/05/09 05:03:55;;;;;;;7.40;4.97;;;;;;;22.57;57.29;101534.75;143723;586;47010;-73
2023/05/09 05:06:21;;;;;;;7.20;4.72;;;;;;;22.58;58.15;101539.16;143721;574;47004;-73
2023/05/09 05:08:48;;;;;;;6.45;5.28;;;;;;;22.59;57.40;101534.50;143724;717;46006;-73
2023/05/09 05:11:16;;;;;;;6.12;4.57;;;;;;;22.61;56.45;101546.00;143723;586;47002;-74
2023/05/09 05:13:43;;;;;;;4.87;4.30;;;;;;;22.62;57.09;101553.13;143723;572;47010;-73
2023/05/09 05:16:09;;;;;;;5.20;4.62;;;;;;;22.61;56.07;101555.06;143727;591;46008;-74
2023/05/09 05:18:36;;;;;;;5.65;4.70;;;;;;;22.62;56.51;101561.34;143722;577;47006;-73
2023/05/09 05:21:02;;;;;;;6.37;4.57;;;;;;;22.62;56.23;101564.94;143724;598;47004;-79
2023/05/09 05:23:29;;;;;;;4.97;4.47;;;;;;;22.61;56.51;101568.75;143719;593;46010;-76
2023/05/09 05:25:55;;;;;;;6.53;4.47;;;;;;;22.61;56.23;101574.22;143724;568;47005;-76
2023/05/09 05:28:22;;;;;;;6.72;4.32;;;;;;;22.61;57.41;101579.72;143724;594;46006;-76
2023/05/09 05:30:48;;;;;;;11.10;4.82;;;;;;;22.60;56.30;101580.78;143726;583;47002;-76
2023/05/09 05:33:15;;;;;;;6.93;4.50;;;;;;;22.59;56.42;101581.88;143723;579;47010;-76
2023/05/09 05:35:41;;;;;;;8.45;4.32;;;;;;;22.59;57.68;101584.62;143722;574;47004;-76
2023/05/09 05:38:08;;;;;;;7.12;4.82;;;;;;;22.59;57.80;101592.00;143725;692;46006;-76
2023/05/09 05:40:34;;;;;;;6.72;4.62;;;;;;;22.60;57.21;101580.78;143725;662;47002;-77
2023/05/09 05:43:01;;;;;;;10.35;6.00;;;;;;;22.62;57.11;101580.50;143724;586;47010;-76
2023/05/09 05:45:29;;;;;;;9.50;6.43;;;;;;;22.65;57.85;101585.47;143722;731;47004;-76
2023/05/09 05:47:55;;;;;;;8.20;5.93;;;;;;;22.68;58.30;101584.97;143720;568;46922;-76
2023/05/09 05:50:22;;;;;;;9.88;5.60;;;;;;;22.72;58.87;101580.62;143726;693;47002;-76
2023/05/09 05:52:48;;;;;;;8.02;5.70;;;;;;;22.75;58.21;101580.13;143724;602;46923;-76
2023/05/09 05:55:15;;;;;;;9.82;5.75;;;;;;;22.78;57.35;101584.25;143724;583;47004;-76
2023/05/09 05:57:41;;;;;;;6.30;5.00;;;;;;;22.80;56.17;101584.81;143725;567;47004;-76
2023/05/09 06:00:11;;;;;;;6.43;4.65;;;;;;;22.84;55.42;101585.94;143724;589;47004;-76
2023/05/09 06:02:37;;;;;;;5.90;4.78;;;;;;;22.85;55.18;101587.59;143723;680;47010;-77
2023/05/09 06:05:05;;;;;;;6.53;4.28;;;;;;;22.87;54.84;101586.25;143722;713;47004;-76
2023/05/09 06:07:32;;;;;;;6.68;4.78;;;;;;;22.85;55.59;101585.69;143723;601;47006;-75
2023/05/09 06:09:58;;;;;;;6.85;5.07;;;;;;;22.86;54.95;101592.81;143727;585;46007;-75
2023/05/09 06:12:25;;;;;;;6.70;5.37;;;;;;;22.86;54.84;101586.47;143719;579;46010;-75
2023/05/09 06:14:51;;;;;;;9.48;7.47;;;;;;;22.89;54.04;101588.72;143724;566;47004;-75
2023/05/09 06:17:18;;;;;;;12.68;7.65;;;;;;;22.89;54.31;101585.97;143725;591;46007;-75
2023/05/09 06:19:44;;;;;;;13.57;6.78;;;;;;;22.90;54.19;101598.59;143724;599;47002;-76
2023/05/09 06:22:10;;;;;;;11.38;6.00;;;;;;;22.91;54.06;101593.94;143724;671;46010;-77
2023/05/09 06:24:37;;;;;;;10.57;5.72;;;;;;;22.90;53.75;101592.28;143727;581;46023;-74
2023/05/09 06:27:04;;;;;;;7.57;5.62;;;;;;;22.91;53.66;101594.75;143724;587;46016;-74
2023/05/09 06:29:30;;;;;;;8.35;5.65;;;;;;;22.92;54.48;101582.72;143722;579;49000;-74
2023/05/09 06:31:56;;;;;;;9.07;5.28;;;;;;;22.92;54.96;101590.13;143724;588;46010;-75
2023/05/09 06:34:23;;;;;;;6.10;4.65;;;;;;;22.88;53.16;101595.28;143722;586;47005;-75
2023/05/09 06:36:49;;;;;;;5.70;3.85;;;;;;;22.62;52.20;101588.72;143720;613;46006;-75
2023/05/09 06:39:16;;;;;;;8.73;4.30;;;;;;;22.65;52.23;101589.06;143724;642;47002;-75
2023/05/09 06:41:42;;;;;;;6.28;3.90;;;;;;;22.68;52.39;101590.44;143723;637;47010;-74
2023/05/09 06:44:08;;;;;;;8.95;3.97;;;;;;;22.74;52.88;101588.56;143724;576;47004;-74
2023/05/09 06:46:34;;;;;;;8.07;3.87;;;;;;;22.75;52.52;101577.38;143724;592;46006;-74
2023/05/09 06:49:01;;;;;;;9.35;4.07;;;;;;;22.78;53.39;101590.53;143725;589;47002;-74
2023/05/09 06:51:27;;;;;;;5.15;3.97;;;;;;;22.80;53.41;101585.63;143724;602;47002;-74
2023/05/09 06:53:54;;;;;;;7.72;3.90;;;;;;;22.84;52.40;101580.47;143728;635;46004;-71
2023/05/09 06:56:22;;;;;;;6.50;3.60;;;;;;;22.88;52.39;101576.09;143728;604;45922;-71
2023/05/09 06:58:48;;;;;;;8.60;3.50;;;;;;;22.93;53.28;101581.63;143725;575;48002;-70
2023/05/09 07:01:15;;;;;;;6.65;3.70;;;;;;;22.98;53.31;101587.16;143720;587;46021;-73
2023/05/09 07:03:41;;;;;;;5.40;3.97;;;;;;;23.00;52.03;101582.25;143721;611;47004;-72
2023/05/09 07:06:08;;;;;;;6.87;3.70;;;;;;;23.03;53.04;101578.16;143724;612;47000;-73
2023/05/09 07:08:34;;;;;;;5.22;3.70;;;;;;;23.05;52.85;101572.41;143723;567;47006;-72
2023/05/09 07:11:00;;;;;;;5.43;3.35;;;;;;;23.05;53.26;101573.25;143723;600;47013;-71
2023/05/09 07:13:27;;;;;;;6.28;3.67;;;;;;;23.05;53.15;101586.09;143722;568;47006;-71
2023/05/09 07:15:53;;;;;;;6.20;3.72;;;;;;;23.00;52.39;101575.94;143725;598;46009;-72
2023/05/09 07:18:20;;;;;;;7.78;3.97;;;;;;;22.98;51.89;101575.34;143726;595;47007;-72
2023/05/09 07:20:46;;;;;;;7.30;4.18;;;;;;;22.99;52.44;101582.50;143724;597;47012;-72
2023/05/09 07:23:12;;;;;;;7.70;3.92;;;;;;;23.00;52.66;101582.25;143723;622;47010;-72
2023/05/09 07:25:39;;;;;;;5.65;3.83;;;;;;;22.99;52.62;101585.22;143719;595;46922;-72
2023/05/09 07:28:05;;;;;;;6.00;4.10;;;;;;;22.99;52.29;101577.84;143724;572;47004;-73
2023/05/09 07:30:31;;;;;;;7.62;3.62;;;;;;;23.00;52.95;101584.16;143724;595;46012;-74
2023/05/09 07:32:58;;;;;;;10.02;4.35;;;;;;;22.95;52.43;101593.16;143724;594;47006;-74
2023/05/09 07:35:25;;;;;;;7.60;4.43;;;;;;;22.83;52.23;101598.00;143723;686;46008;-74
2023/05/09 07:37:51;;;;;;;6.60;3.75;;;;;;;22.80;51.96;101593.03;143725;703;47004;-73
2023/05/09 07:40:18;;;;;;;10.85;4.05;;;;;;;22.81;53.09;101598.22;143722;626;47012;-74
2023/05/09 07:42:48;;;;;;;6.82;3.60;;;;;;;22.61;51.96;101603.50;143722;622;47006;-74
2023/05/09 07:45:15;;;;;;;5.47;4.00;;;;;;;22.53;52.62;101613.84;143725;601;46008;-74
2023/05/09 07:47:41;;;;;;;7.62;4.40;;;;;;;22.58;52.53;101610.34;143724;597;47006;-74
2023/05/09 07:50:27;;;;;;;7.22;4.57;;;;;;;22.66;52.43;101609.87;143718;569;46012;-74
2023/05/09 07:52:54;;;;;;;7.95;4.22;;;;;;;22.69;52.41;101603.88;143722;699;47006;-75
2023/05/09 07:55:20;;;;;;;7.78;3.78;;;;;;;22.70;51.73;101605.53;143724;572;46922;-74
2023/05/09 07:57:47;;;;;;;11.15;4.05;;;;;;;22.71;52.16;101604.44;143726;590;47004;-75
2023/05/09 08:00:15;;;;;;;11.82;4.72;;;;;;;22.74;52.19;101605.00;143724;579;46012;-74
2023/05/09 08:02:41;;;;;;;8.23;4.00;;;;;;;22.72;52.25;101602.53;143724;574;47006;-75
2023/05/09 08:05:10;;;;;;;7.18;3.62;;;;;;;22.58;52.28;101593.91;143726;567;46008;-74
2023/05/09 08:07:36;;;;;;;6.55;4.00;;;;;;;22.62;52.09;101591.47;143727;592;46006;-74
2023/05/09 08:10:04;;;;;;;6.80;5.07;;;;;;;22.60;52.30;101588.16;143722;660;47006;-74
2023/05/09 08:12:30;;;;;;;6.03;4.55;;;;;;;22.58;51.88;101587.62;143724;588;47006;-74
2023/05/09 08:14:56;;;;;;;7.93;4.62;;;;;;;22.55;53.07;101603.47;143720;576;46024;-73
2023/05/09 08:17:23;;;;;;;6.37;4.80;;;;;;;22.39;52.87;101605.19;143727;592;46010;-74
2023/05/09 08:19:49;;;;;;;6.28;4.15;;;;;;;22.45;52.24;101594.31;143724;590;47010;-75
2023/05/09 08:22:17;;;;;;;7.47;4.32;;;;;;;22.51;52.95;101587.78;143723;643;47006;-75
2023/05/09 08:24:44;;;;;;;9.75;4.60;;;;;;;22.61;52.94;101578.87;143723;592;46009;-74
2023/05/09 08:27:12;;;;;;;9.65;4.53;;;;;;;22.68;51.98;101585.78;143725;568;47006;-72
2023/05/09 08:29:42;;;;;;;13.32;5.05;;;;;;;22.76;52.15;101589.16;143722;585;47010;-74
2023/05/09 08:32:08;;;;;;;10.23;5.05;;;;;;;22.81;52.69;101594.69;143722;573;47006;-73
2023/05/09 08:34:35;;;;;;;10.38;4.65;;;;;;;22.87;52.94;101588.12;143724;567;46008;-72
2023/05/09 08:37:02;;;;;;;8.90;4.70;;;;;;;22.92;52.81;101585.44;143723;602;47006;-72
2023/05/09 08:39:29;;;;;;;12.23;5.25;;;;;;;22.99;51.46;101594.28;143718;706;47012;-72
2023/05/09 08:41:58;;;;;;;12.48;5.95;;;;;;;22.98;51.68;101584.41;143726;592;46010;-72
2023/05/09 08:44:29;;;;;;;7.00;5.15;;;;;;;22.95;51.60;101590.41;143720;568;48004;-73
2023/05/09 08:46:58;;;;;;;6.75;4.90;;;;;;;22.83;51.49;101593.31;143725;592;47004;-75
2023/05/09 08:49:25;;;;;;;8.23;5.15;;;;;;;22.79;51.82;101583.97;143724;603;47923;-75
2023/05/09 08:51:53;;;;;;;8.93;5.28;;;;;;;22.85;51.65;101593.88;143724;675;47006;-74
2023/05/09 08:54:21;;;;;;;8.18;4.72;;;;;;;22.79;51.07;101589.44;143725;597;47002;-75
2023/05/09 08:56:48;;;;;;;8.02;4.70;;;;;;;22.68;51.38;101593.19;143722;619;47010;-74
2023/05/09 08:59:16;;;;;;;9.07;5.78;;;;;;;22.58;50.90;101593.91;143722;583;46924;-73
2023/05/09 09:01:42;;;;;;;8.32;4.85;;;;;;;22.58;51.26;101595.84;143722;604;47004;-73
2023/05/09 09:04:10;;;;;;;7.20;5.43;;;;;;;22.66;51.19;101592.63;143716;684;47008;-74
2023/05/09 09:06:38;;;;;;;8.30;4.30;;;;;;;22.73;50.15;101601.47;143723;592;47006;-73
2023/05/09 09:09:08;;;;;;;8.63;4.43;;;;;;;22.75;50.26;101602.03;143722;693;46011;-74
2023/05/09 09:11:35;;;;;;;7.60;4.20;;;;;;;22.77;49.92;101596.28;143724;572;47006;-74
2023/05/09 09:14:10;;;;;;;8.00;4.12;;;;;;;22.77;49.98;101599.81;143722;566;46008;-74
2023/05/09 09:16:37;;;;;;;5.82;4.15;;;;;;;22.82;50.29;101597.16;143722;602;47004;-73
2023/05/09 09:19:07;;;;;;;4.55;3.37;;;;;;;22.84;49.15;101596.91;143723;673;47012;-74
2023/05/09 09:21:33;;;;;;;6.05;3.67;;;;;;;22.87;49.18;101597.19;143719;627;47006;-73
2023/05/09 09:24:01;;;;;;;6.30;3.50;;;;;;;22.91;49.37;101593.94;143722;570;46009;-73
2023/05/09 09:26:30;;;;;;;6.40;4.37;;;;;;;22.91;49.21;101588.47;143723;603;47004;-74
2023/05/09 09:28:57;;;;;;;6.43;3.90;;;;;;;22.82;49.14;101585.38;143716;578;46012;-73
2023/05/09 09:31:30;;;;;;;5.35;3.90;;;;;;;22.84;48.97;101588.69;143721;684;47006;-73
2023/05/09 09:34:03;;;;;;;9.25;4.55;;;;;;;22.89;49.34;101577.75;143723;590;46008;-74
2023/05/09 09:36:33;;;;;;;7.53;4.55;;;;;;;22.94;49.42;101583.28;143724;659;47004;-73
2023/05/09 09:39:03;;;;;;;7.03;4.93;;;;;;;22.99;50.51;101582.50;143720;587;47011;-74
2023/05/09 09:41:34;;;;;;;5.10;3.85;;;;;;;23.04;50.62;101578.97;143720;574;47006;-73
2023/05/09 09:44:09;;;;;;;8.35;4.22;;;;;;;23.07;50.72;101576.53;143722;566;46008;-74
2023/05/09 09:46:52;;;;;;;7.05;4.20;;;;;;;23.11;50.54;101580.41;143724;589;47006;-73
2023/05/09 09:49:23;;;;;;;6.37;4.25;;;;;;;23.14;51.42;101585.34;143714;582;47012;-74
2023/05/09 09:51:56;;;;;;;8.88;4.57;;;;;;;23.15;51.35;101576.03;143722;647;47004;-72
2023/05/09 09:54:26;;;;;;;8.23;4.70;;;;;;;23.19;50.47;101575.53;143718;646;46007;-73
2023/05/09 09:56:53;;;;;;;7.97;4.43;;;;;;;23.20;50.11;101575.28;143724;681;47004;-72
2023/05/09 09:59:21;;;;;;;7.85;4.80;;;;;;;23.21;50.24;101573.38;143723;626;46010;-74
2023/05/09 10:02:13;;;;;;;7.03;4.40;;;;;;;23.22;47.38;101564.06;143720;583;47004;-72
2023/05/09 10:04:41;;;;;;;8.30;4.05;;;;;;;23.10;46.97;101578.75;143723;701;46006;-72
2023/05/09 10:07:09;;;;;;;6.32;4.10;;;;;;;23.10;47.89;101573.28;143721;577;47004;-72
2023/05/09 10:09:39;;;;;;;11.23;3.97;;;;;;;23.06;46.69;101569.41;143722;592;46010;-74
2023/05/09 10:12:07;;;;;;;8.57;4.05;;;;;;;23.07;47.05;101570.22;143722;585;47004;-74
2023/05/09 10:14:35;;;;;;;6.20;4.40;;;;;;;23.09;47.77;101568.91;143721;626;47006;-74
2023/05/09 10:17:03;;;;;;;7.62;4.35;;;;;;;23.10;47.14;101570.53;143722;578;47004;-74
2023/05/09 10:19:30;;;;;;;9.82;4.53;;;;;;;23.10;47.51;101564.22;143718;702;46008;-74
2023/05/09 10:22:05;;;;;;;6.82;4.37;;;;;;;23.05;46.75;101554.06;143722;683;47004;-72
2023/05/09 10:24:41;;;;;;;6.47;4.87;;;;;;;23.04;47.56;101560.62;143716;609;48004;-73
2023/05/09 10:27:10;;;;;;;6.35;4.35;;;;;;;23.06;47.68;101563.94;143723;603;47004;-74
2023/05/09 10:30:12;;;;;;;7.57;4.50;;;;;;;23.08;48.02;101561.75;143723;583;46025;-74
2023/05/09 10:33:08;;;;;;;8.48;4.95;;;;;;;23.11;48.99;101550.28;143722;598;47002;-73
2023/05/09 10:35:43;;;;;;;8.10;3.80;;;;;;;23.13;49.04;101553.56;143722;614;46008;-74
2023/05/09 10:38:11;;;;;;;7.68;4.57;;;;;;;23.15;48.24;101548.63;143724;577;47002;-74
2023/05/09 10:40:39;;;;;;;7.82;4.80;;;;;;;23.17;48.11;101548.41;143723;577;46010;-74
2023/05/09 10:43:08;;;;;;;7.93;4.70;;;;;;;23.18;48.17;101544.56;143720;577;47002;-73
2023/05/09 10:45:35;;;;;;;9.07;5.10;;;;;;;23.21;48.30;101551.47;143716;568;46007;-74
2023/05/09 10:48:05;;;;;;;7.93;4.57;;;;;;;23.23;47.77;101552.84;143725;588;46010;-75
2023/05/09 10:50:32;;;;;;;7.30;4.62;;;;;;;23.25;47.14;101552.59;143722;598;47010;-75
2023/05/09 10:53:17;;;;;;;6.10;4.28;;;;;;;23.26;47.83;101556.97;143717;581;47009;-74
2023/05/09 10:56:00;;;;;;;5.80;4.37;;;;;;;23.26;47.75;101557.78;143723;599;46006;-76
2023/05/09 10:58:32;;;;;;;5.50;4.40;;;;;;;23.26;47.96;101568.75;143720;597;47002;-74
2023/05/09 11:01:00;;;;;;;7.05;4.68;;;;;;;23.26;47.65;101562.47;143722;698;47010;-74
2023/05/09 11:03:28;;;;;;;9.52;4.95;;;;;;;23.25;47.14;101556.13;143723;596;47004;-76
2023/05/09 11:05:57;;;;;;;6.72;4.65;;;;;;;23.26;47.47;101565.19;143720;591;47006;-74
2023/05/09 11:08:28;;;;;;;8.23;4.68;;;;;;;23.27;47.99;101564.12;143722;595;47004;-74
2023/05/09 11:11:03;;;;;;;11.55;5.72;;;;;;;23.27;48.49;101570.41;143718;573;46010;-73
2023/05/09 11:13:31;;;;;;;5.75;4.30;;;;;;;23.26;47.08;101568.75;143722;578;47004;-74
2023/05/09 11:16:15;;;;;;;7.40;4.65;;;;;;;23.21;47.44;101573.38;143720;595;47002;-74
2023/05/09 11:18:52;;;;;;;7.07;5.05;;;;;;;23.14;46.81;101568.91;143724;613;47006;-74
2023/05/09 11:21:19;;;;;;;7.95;4.82;;;;;;;23.05;47.22;101564.19;143721;580;47010;-73
2023/05/09 11:23:47;;;;;;;8.90;5.78;;;;;;;22.96;47.22;101572.91;143716;581;47004;-74
2023/05/09 11:26:14;;;;;;;9.63;5.65;;;;;;;22.95;47.40;101578.63;143721;575;47004;-74
2023/05/09 11:28:50;;;;;;;5.60;4.30;;;;;;;22.86;47.01;101576.37;143722;598;47002;-72
2023/05/09 11:31:17;;;;;;;8.18;5.03;;;;;;;22.83;47.02;101579.63;143723;652;46011;-74